Waukee, Iowa
Current Conditions -  °F | °C
As of 9:54 AM on Friday 19 Dec 2014 (Local Time) from KDSM Reporting Station
Haze Haze  
Wind Chill: -5°   Ceiling: 3800
Heat Index: -1°   Visibility: 3mi
Dew Point: -3°   Wind: 7mph
Humidity: 85%   Direction: 150°SSE
Pressure: 30.29"   Gusts: NA
Location:  41.61°N, 93.89°W
Report Text: KDSM 191554Z 15006KT 3SM BR OVC038 M01/M03 A3029 RMK AO2 SFC VIS 4 SLP268 T10111033
Loading
Personal Weather Stations






























Interactive Weather Map New forecast layout! Learn more

10-Day Weather Forecast

Advertisements
Track Severe Weather on mobile